Time;durP1;ratioP1;P1;durP2;ratioP2;P2;SDS_P1;SDS_P2;PMS_P1;PMS_P2;Temp;Humidity;BMP_temperature;BMP_pressure;BME280_temperature;BME280_humidity;BME280_pressure;Samples;Min_cycle;Max_cycle;Signal;HPM_P1;HPM_P2
2023/03/28 00:02:12;;;;;;;6.72;2.38;;;2.90;82.20;;;;;;5016653;28;20095;-64
2023/03/28 00:04:48;;;;;;;4.35;2.40;;;2.90;82.30;;;;;;5017370;28;20491;-64
2023/03/28 00:07:15;;;;;;;4.60;1.83;;;2.80;82.40;;;;;;5015558;28;20162;-67
2023/03/28 00:09:50;;;;;;;7.10;2.60;;;2.80;82.40;;;;;;5014167;28;20485;-63
2023/03/28 00:12:23;;;;;;;4.60;2.08;;;2.80;82.40;;;;;;5013394;28;20436;-62
2023/03/28 00:14:57;;;;;;;4.70;1.70;;;2.80;82.40;;;;;;5015308;28;20049;-63
2023/03/28 00:17:32;;;;;;;5.45;2.28;;;2.90;82.20;;;;;;5016571;28;20517;-64
2023/03/28 00:20:09;;;;;;;6.72;2.33;;;2.80;82.20;;;;;;5014612;28;20057;-64
2023/03/28 00:22:43;;;;;;;4.55;1.67;;;2.80;82.30;;;;;;5016721;28;20049;-63
2023/03/28 00:25:17;;;;;;;4.78;1.90;;;2.70;82.40;;;;;;5013916;28;20042;-63
2023/03/28 00:27:50;;;;;;;4.35;1.98;;;2.70;82.20;;;;;;5016135;28;20045;-63
2023/03/28 00:30:17;;;;;;;4.10;1.98;;;2.70;82.30;;;;;;4985540;28;20604;-64
2023/03/28 00:32:51;;;;;;;4.18;2.22;;;2.60;82.50;;;;;;5014477;28;20046;-62
2023/03/28 00:35:25;;;;;;;4.70;2.22;;;2.60;82.60;;;;;;5016200;28;20059;-64
2023/03/28 00:37:59;;;;;;;5.65;2.50;;;2.70;82.30;;;;;;4998796;28;20423;-63
2023/03/28 00:40:36;;;;;;;6.10;2.45;;;2.70;82.30;;;;;;5015063;28;20049;-63
2023/03/28 00:43:13;;;;;;;4.32;2.45;;;2.70;82.50;;;;;;5013917;28;20126;-63
2023/03/28 00:45:46;;;;;;;4.25;2.40;;;2.70;82.60;;;;;;5008341;28;20064;-62
2023/03/28 00:48:28;;;;;;;5.20;2.88;;;2.60;82.70;;;;;;4994462;28;20069;-62
2023/03/28 00:51:02;;;;;;;5.50;2.65;;;2.60;82.80;;;;;;5008403;28;20053;-64
2023/03/28 00:53:37;;;;;;;5.75;2.25;;;2.60;83.00;;;;;;5011382;28;20137;-63
2023/03/28 00:56:13;;;;;;;4.60;2.30;;;2.70;83.10;;;;;;4994650;28;20049;-63
2023/03/28 00:58:43;;;;;;;6.00;2.30;;;2.60;83.00;;;;;;4997786;28;20042;-64
2023/03/28 01:01:19;;;;;;;5.03;1.88;;;2.60;82.90;;;;;;5012114;28;20646;-63
2023/03/28 01:04:01;;;;;;;4.40;1.63;;;2.60;82.80;;;;;;5012080;28;20676;-64
2023/03/28 01:06:41;;;;;;;6.50;1.52;;;2.50;82.90;;;;;;5015155;28;20053;-62
2023/03/28 01:09:18;;;;;;;3.88;1.13;;;2.50;82.90;;;;;;4999968;28;20052;-62
2023/03/28 01:11:56;;;;;;;2.95;0.98;;;2.50;82.80;;;;;;4996317;28;20053;-62
2023/03/28 01:14:30;;;;;;;3.83;1.38;;;2.50;82.60;;;;;;5014326;28;20053;-63
2023/03/28 01:17:05;;;;;;;2.80;1.27;;;2.50;82.80;;;;;;5003235;28;20060;-62
2023/03/28 01:19:57;;;;;;;3.25;1.20;;;2.40;82.80;;;;;;4994198;28;20049;-62
2023/03/28 01:23:07;;;;;;;6.28;1.63;;;2.50;82.60;;;;;;5012662;28;20049;-63
2023/03/28 01:26:14;;;;;;;3.60;1.13;;;2.40;82.90;;;;;;4998474;28;20045;-64
2023/03/28 01:29:19;;;;;;;3.35;1.02;;;2.40;82.80;;;;;;5013205;28;20046;-63
2023/03/28 01:32:42;;;;;;;4.80;1.60;;;2.40;82.60;;;;;;4997140;28;20045;-63
2023/03/28 01:35:51;;;;;;;3.42;1.38;;;2.30;82.60;;;;;;4983914;28;20067;-65
2023/03/28 01:38:33;;;;;;;2.78;1.33;;;2.40;82.70;;;;;;4993605;28;20072;-62
2023/03/28 01:41:13;;;;;;;5.15;1.42;;;2.30;82.50;;;;;;5013492;28;20104;-64
2023/03/28 01:43:55;;;;;;;3.15;1.33;;;2.30;82.50;;;;;;5011635;28;20492;-61
2023/03/28 01:46:32;;;;;;;5.97;1.40;;;2.20;82.70;;;;;;5018927;28;20061;-64
2023/03/28 01:49:16;;;;;;;2.95;1.60;;;2.20;82.80;;;;;;5009383;28;20488;-64
2023/03/28 01:51:57;;;;;;;3.03;1.35;;;2.30;82.70;;;;;;5028719;28;20060;-61
2023/03/28 01:54:36;;;;;;;3.53;1.23;;;2.20;82.90;;;;;;5030682;28;20125;-61
2023/03/28 01:57:17;;;;;;;4.07;1.58;;;2.20;82.70;;;;;;5000274;28;20111;-63
2023/03/28 01:59:58;;;;;;;4.47;1.50;;;2.20;82.80;;;;;;5030453;28;20080;-63
2023/03/28 02:02:37;;;;;;;3.78;1.45;;;2.10;82.90;;;;;;5034500;28;20053;-63
2023/03/28 02:05:39;;;;;;;3.00;1.55;;;2.10;83.00;;;;;;5001618;28;20069;-63
2023/03/28 02:08:24;;;;;;;2.90;1.45;;;2.20;82.90;;;;;;5011385;28;20053;-63
2023/03/28 02:11:15;;;;;;;4.50;2.00;;;2.20;82.70;;;;;;5010636;28;20041;-64
2023/03/28 02:14:11;;;;;;;5.57;1.48;;;2.20;82.80;;;;;;5010627;28;20045;-65
2023/03/28 02:17:14;;;;;;;3.10;1.48;;;2.10;82.80;;;;;;5016333;28;20049;-64
2023/03/28 02:20:11;;;;;;;4.05;1.80;;;2.00;82.80;;;;;;5016358;28;20049;-62
2023/03/28 02:23:09;;;;;;;4.10;1.50;;;2.00;82.70;;;;;;5013163;28;20048;-64
2023/03/28 02:26:21;;;;;;;2.80;1.35;;;2.00;82.80;;;;;;5010254;28;20141;-64
2023/03/28 02:29:18;;;;;;;3.97;1.55;;;2.00;82.70;;;;;;4998103;28;20061;-67
2023/03/28 02:32:11;;;;;;;5.93;1.48;;;1.90;82.80;;;;;;5013912;28;20050;-65
2023/03/28 02:34:47;;;;;;;4.35;1.70;;;2.00;82.70;;;;;;5028477;28;20484;-63
2023/03/28 02:37:40;;;;;;;3.83;1.30;;;2.00;82.80;;;;;;5012732;28;20045;-64
2023/03/28 02:40:28;;;;;;;2.33;1.38;;;2.00;82.80;;;;;;5031865;28;20103;-62
2023/03/28 02:43:19;;;;;;;3.55;1.40;;;1.90;82.80;;;;;;5031779;28;20033;-62
2023/03/28 02:46:10;;;;;;;3.60;1.30;;;1.90;82.70;;;;;;5027363;28;20416;-64
2023/03/28 02:49:11;;;;;;;4.20;1.55;;;1.90;82.70;;;;;;4992144;28;21068;-62
2023/03/28 02:51:49;;;;;;;;;;;1.90;82.70;;;;;;4990548;28;20046;-64
2023/03/28 02:54:29;;;;;;;7.18;1.63;;;1.90;82.80;;;;;;4999376;28;20303;-62
2023/03/28 02:57:29;;;;;;;5.30;1.60;;;1.90;82.60;;;;;;5007280;28;20038;-62
2023/03/28 03:00:11;;;;;;;4.03;1.35;;;1.80;82.70;;;;;;4988118;28;20046;-63
2023/03/28 03:02:48;;;;;;;5.13;1.75;;;1.80;82.70;;;;;;5011086;28;20038;-64
2023/03/28 03:05:22;;;;;;;3.13;1.27;;;1.80;82.80;;;;;;4996344;28;20050;-64
2023/03/28 03:07:55;;;;;;;5.20;1.70;;;1.70;82.80;;;;;;4984448;28;20138;-65
2023/03/28 03:10:30;;;;;;;7.22;1.80;;;1.70;82.80;;;;;;4999476;28;20440;-62
2023/03/28 03:13:03;;;;;;;3.00;1.35;;;1.70;82.90;;;;;;5018176;28;20543;-62
2023/03/28 03:15:40;;;;;;;4.55;1.23;;;1.70;83.10;;;;;;5003187;28;20477;-64
2023/03/28 03:18:33;;;;;;;2.97;1.25;;;1.70;82.80;;;;;;4986214;28;20116;-64
2023/03/28 03:21:07;;;;;;;4.55;1.50;;;1.70;82.70;;;;;;5016281;28;20137;-63
2023/03/28 03:23:42;;;;;;;3.22;1.52;;;1.70;82.70;;;;;;4999611;28;20045;-65
2023/03/28 03:26:16;;;;;;;3.60;1.40;;;1.70;82.80;;;;;;5001619;28;20057;-65
2023/03/28 03:28:59;;;;;;;3.00;1.30;;;1.70;82.70;;;;;;4998131;28;20040;-62
2023/03/28 03:31:34;;;;;;;3.58;1.35;;;1.60;82.80;;;;;;4985683;28;20562;-64
2023/03/28 03:34:23;;;;;;;6.38;1.80;;;1.70;82.60;;;;;;5017227;28;20174;-63
2023/03/28 03:36:59;;;;;;;3.95;1.67;;;1.70;82.60;;;;;;4997384;28;20064;-64
2023/03/28 03:39:34;;;;;;;6.82;1.98;;;1.60;82.70;;;;;;5011939;28;20065;-64
2023/03/28 03:42:08;;;;;;;8.80;1.73;;;1.60;82.80;;;;;;4998784;28;20096;-63
2023/03/28 03:44:41;;;;;;;3.63;1.83;;;1.60;82.60;;;;;;5012827;28;20080;-64
2023/03/28 03:47:23;;;;;;;5.93;1.70;;;1.60;82.50;;;;;;4998650;28;20050;-63
2023/03/28 03:49:57;;;;;;;4.55;1.65;;;1.60;82.50;;;;;;4996961;28;20052;-64
2023/03/28 03:52:33;;;;;;;4.53;1.80;;;1.60;82.70;;;;;;4998313;28;20041;-65
2023/03/28 03:55:07;;;;;;;4.82;1.60;;;1.60;82.70;;;;;;4996712;28;20050;-64
2023/03/28 03:57:41;;;;;;;3.65;1.60;;;1.50;82.60;;;;;;4999131;28;20057;-63
2023/03/28 04:00:17;;;;;;;4.25;1.80;;;1.50;82.70;;;;;;4998338;28;20140;-63
2023/03/28 04:02:53;;;;;;;5.20;1.88;;;1.50;82.70;;;;;;4998691;28;20508;-62
2023/03/28 04:05:28;;;;;;;7.65;2.17;;;1.50;82.60;;;;;;4996484;28;20061;-64
2023/03/28 04:08:06;;;;;;;5.50;2.15;;;1.50;82.60;;;;;;5014834;28;20567;-63
2023/03/28 04:10:42;;;;;;;6.70;1.90;;;1.50;82.80;;;;;;4996833;28;20157;-64
2023/03/28 04:13:15;;;;;;;3.95;1.98;;;1.50;82.60;;;;;;5002147;28;20053;-63
2023/03/28 04:15:54;;;;;;;4.78;2.03;;;1.50;82.40;;;;;;5000126;28;20129;-64
2023/03/28 04:18:44;;;;;;;5.78;2.33;;;1.50;82.40;;;;;;4993867;28;20520;-64
2023/03/28 04:21:24;;;;;;;7.90;2.10;;;1.50;82.30;;;;;;5011105;28;20041;-64
2023/03/28 04:24:03;;;;;;;7.43;2.40;;;1.50;82.40;;;;;;5007027;28;20054;-63
2023/03/28 04:26:44;;;;;;;8.40;2.63;;;1.40;82.40;;;;;;4993092;28;20054;-62
2023/03/28 04:29:23;;;;;;;4.70;2.03;;;1.40;82.60;;;;;;4992460;28;20046;-63
2023/03/28 04:32:17;;;;;;;4.38;1.88;;;1.30;82.60;;;;;;4990974;28;20046;-62
2023/03/28 04:35:06;;;;;;;5.32;1.80;;;1.40;82.40;;;;;;4993522;28;20049;-63
2023/03/28 04:37:40;;;;;;;4.18;1.90;;;1.30;82.60;;;;;;5004920;28;20124;-64
2023/03/28 04:40:14;;;;;;;5.35;1.88;;;1.40;82.60;;;;;;4997007;28;20049;-62
2023/03/28 04:43:00;;;;;;;8.82;2.00;;;1.40;82.70;;;;;;4992147;28;20104;-64
2023/03/28 04:45:48;;;;;;;7.40;2.10;;;1.40;82.50;;;;;;4993953;28;20116;-64
2023/03/28 04:48:22;;;;;;;6.28;2.45;;;1.40;82.50;;;;;;5015596;28;20053;-61
2023/03/28 04:50:57;;;;;;;7.88;2.50;;;1.30;82.70;;;;;;5014164;28;20041;-66
2023/03/28 04:53:32;;;;;;;7.35;2.63;;;1.30;82.70;;;;;;5001948;28;20126;-62
2023/03/28 04:56:24;;;;;;;6.97;2.35;;;1.30;82.70;;;;;;5027553;28;20183;-63
2023/03/28 04:58:57;;;;;;;10.13;2.78;;;1.40;82.60;;;;;;5014880;28;20065;-64
2023/03/28 05:01:31;;;;;;;7.10;2.55;;;1.40;82.60;;;;;;5018657;28;20157;-63
2023/03/28 05:04:29;;;;;;;5.18;2.10;;;1.30;82.80;;;;;;5017752;28;20054;-63
2023/03/28 05:07:06;;;;;;;7.18;2.25;;;1.30;83.00;;;;;;5011128;28;20096;-64
2023/03/28 05:09:39;;;;;;;5.38;1.75;;;1.30;83.00;;;;;;5030619;28;20041;-64
2023/03/28 05:12:12;;;;;;;6.55;2.47;;;1.30;83.10;;;;;;5026850;28;20139;-64
2023/03/28 05:15:02;;;;;;;7.13;2.30;;;1.30;83.20;;;;;;5002872;28;20534;-63
2023/03/28 05:17:58;;;;;;;5.78;2.13;;;1.20;83.40;;;;;;5018283;28;20045;-63
2023/03/28 05:20:36;;;;;;;5.90;2.58;;;1.20;83.60;;;;;;5013765;28;20079;-64
2023/03/28 05:23:12;;;;;;;7.95;2.65;;;1.20;83.60;;;;;;5027215;28;20053;-63
2023/03/28 05:25:51;;;;;;;7.78;3.25;;;1.20;83.60;;;;;;5034644;28;20075;-64
2023/03/28 05:28:24;;;;;;;7.55;3.20;;;1.20;83.40;;;;;;5031786;28;20082;-62
2023/03/28 05:31:00;;;;;;;7.32;2.75;;;1.30;83.40;;;;;;5030682;28;20100;-64
2023/03/28 05:33:34;;;;;;;11.48;3.45;;;1.30;83.20;;;;;;5002718;28;20056;-63
2023/03/28 05:36:09;;;;;;;7.70;3.03;;;1.30;83.40;;;;;;5030483;28;20100;-64
2023/03/28 05:38:43;;;;;;;6.47;2.80;;;1.30;83.30;;;;;;5001035;28;20041;-63
2023/03/28 05:41:18;;;;;;;9.00;2.80;;;1.30;83.30;;;;;;5004141;28;20056;-63
2023/03/28 05:43:51;;;;;;;9.10;2.83;;;1.40;83.30;;;;;;5003164;28;20557;-63
2023/03/28 05:46:49;;;;;;;7.63;2.70;;;1.40;83.20;;;;;;4993916;28;20219;-63
2023/03/28 05:49:23;;;;;;;10.60;3.05;;;1.40;83.10;;;;;;5009382;28;20071;-63
2023/03/28 05:51:56;;;;;;;6.22;2.90;;;1.40;83.20;;;;;;4994140;28;20054;-65
2023/03/28 05:54:34;;;;;;;8.20;2.95;;;1.40;83.40;;;;;;5009482;28;20041;-64
2023/03/28 05:57:08;;;;;;;7.38;2.80;;;1.40;83.60;;;;;;4996386;28;20052;-64
2023/03/28 05:59:42;;;;;;;7.13;2.80;;;1.40;83.40;;;;;;5008914;28;20143;-62
2023/03/28 06:02:23;;;;;;;8.13;2.72;;;1.40;83.40;;;;;;5007421;28;20058;-64
2023/03/28 06:04:57;;;;;;;6.35;2.95;;;1.50;83.50;;;;;;5010941;28;20041;-64
2023/03/28 06:07:30;;;;;;;7.03;2.70;;;1.50;83.50;;;;;;5011374;28;20069;-63
2023/03/28 06:10:08;;;;;;;6.93;3.00;;;1.50;83.60;;;;;;4993413;28;20459;-63
2023/03/28 06:12:50;;;;;;;8.05;2.90;;;1.60;83.70;;;;;;4995384;28;20088;-63
2023/03/28 06:15:23;;;;;;;8.80;3.80;;;1.60;83.70;;;;;;4995624;28;20053;-63
2023/03/28 06:17:57;;;;;;;12.25;3.50;;;1.60;83.80;;;;;;4986624;28;20042;-64
2023/03/28 06:20:24;;;;;;;8.73;3.70;;;1.70;83.90;;;;;;4995079;28;20152;-64
2023/03/28 06:22:58;;;;;;;8.82;3.80;;;1.70;84.10;;;;;;5006644;28;20049;-63
2023/03/28 06:25:33;;;;;;;9.68;3.63;;;1.70;84.20;;;;;;4996260;28;20061;-62
2023/03/28 06:28:06;;;;;;;8.65;3.70;;;1.80;84.30;;;;;;5008806;28;20056;-63
2023/03/28 06:31:02;;;;;;;7.72;3.85;;;1.80;84.30;;;;;;4989351;28;20058;-64
2023/03/28 06:33:39;;;;;;;10.45;3.83;;;1.90;84.40;;;;;;5009923;28;20038;-62
2023/03/28 06:36:13;;;;;;;8.93;3.70;;;2.00;84.50;;;;;;4992072;28;20053;-63
2023/03/28 06:38:47;;;;;;;10.38;4.22;;;2.10;84.20;;;;;;4995880;28;20075;-62
2023/03/28 06:41:23;;;;;;;11.93;3.80;;;2.20;84.30;;;;;;5012567;28;20046;-63
2023/03/28 06:43:57;;;;;;;7.45;3.55;;;2.30;84.30;;;;;;4995914;28;20133;-64
2023/03/28 06:46:55;;;;;;;8.13;4.03;;;2.40;84.00;;;;;;5013764;28;20107;-63
2023/03/28 06:49:35;;;;;;;7.72;3.60;;;2.50;83.80;;;;;;5012910;28;20136;-63
2023/03/28 06:52:28;;;;;;;9.93;3.72;;;2.60;84.10;;;;;;5014521;28;20052;-64
2023/03/28 06:55:05;;;;;;;8.50;3.50;;;2.70;83.70;;;;;;4995340;28;20501;-64
2023/03/28 06:57:40;;;;;;;9.23;3.55;;;2.70;83.60;;;;;;4999268;28;20034;-64
2023/03/28 07:00:32;;;;;;;11.50;3.72;;;2.80;83.50;;;;;;5001460;28;20138;-63
2023/03/28 07:03:25;;;;;;;9.80;3.63;;;2.80;83.60;;;;;;5014380;28;20046;-64
2023/03/28 07:06:04;;;;;;;7.85;3.38;;;2.80;84.00;;;;;;5015485;28;20104;-63
2023/03/28 07:08:38;;;;;;;13.07;4.15;;;2.90;83.90;;;;;;5018714;28;20041;-63
2023/03/28 07:11:11;;;;;;;8.35;3.70;;;2.90;83.80;;;;;;5001294;28;20146;-62
2023/03/28 07:13:49;;;;;;;9.68;4.10;;;2.90;83.80;;;;;;5011879;28;20551;-60
2023/03/28 07:16:24;;;;;;;7.35;3.38;;;3.00;83.80;;;;;;5014302;28;20084;-63
2023/03/28 07:18:58;;;;;;;12.23;3.75;;;3.00;83.60;;;;;;5015690;28;20053;-63
2023/03/28 07:21:35;;;;;;;8.77;3.22;;;3.10;83.60;;;;;;5013304;28;20050;-62
2023/03/28 07:24:09;;;;;;;11.23;3.25;;;3.10;83.70;;;;;;5013941;28;20046;-69
2023/03/28 07:27:04;;;;;;;9.88;3.53;;;3.10;83.20;;;;;;5013363;28;20061;-62
2023/03/28 07:29:38;;;;;;;8.75;3.80;;;3.10;83.30;;;;;;5015207;28;20046;-62
2023/03/28 07:32:12;;;;;;;11.55;4.20;;;3.00;82.90;;;;;;4996351;28;20077;-63
2023/03/28 07:34:40;;;;;;;8.38;3.80;;;3.10;83.60;;;;;;5016679;28;20050;-63
2023/03/28 07:37:19;;;;;;;10.20;4.47;;;3.20;83.70;;;;;;4996645;28;20137;-63
2023/03/28 07:40:28;;;;;;;9.77;3.65;;;3.20;83.50;;;;;;4989360;28;20469;-62
2023/03/28 07:43:02;;;;;;;9.02;4.20;;;3.30;83.40;;;;;;5010398;28;20049;-61
2023/03/28 07:45:37;;;;;;;7.90;3.25;;;3.50;83.60;;;;;;4995289;28;20068;-64
2023/03/28 07:48:17;;;;;;;10.52;4.88;;;3.50;83.10;;;;;;5015690;28;20549;-61
2023/03/28 07:50:50;;;;;;;12.32;5.43;;;3.50;82.90;;;;;;5035843;28;20103;-62
2023/03/28 07:53:23;;;;;;;19.17;7.47;;;3.60;82.80;;;;;;5019875;28;20041;-63
2023/03/28 07:55:57;;;;;;;16.15;8.10;;;3.50;83.10;;;;;;5015266;28;21360;-64
2023/03/28 07:58:50;;;;;;;27.73;12.73;;;3.60;82.70;;;;;;5032721;28;20049;-63
2023/03/28 08:01:25;;;;;;;22.45;15.18;;;3.50;82.20;;;;;;5002204;28;20546;-69
2023/03/28 08:04:01;;;;;;;17.70;10.93;;;3.50;82.40;;;;;;5013705;28;20171;-68
2023/03/28 08:06:51;;;;;;;16.13;9.00;;;3.50;82.30;;;;;;5004305;28;20387;-68
2023/03/28 08:09:24;;;;;;;14.48;8.15;;;3.70;82.30;;;;;;5013047;28;20073;-71
2023/03/28 08:12:10;;;;;;;13.48;7.25;;;3.80;82.10;;;;;;5015913;28;20041;-69
2023/03/28 08:14:43;;;;;;;15.98;6.20;;;3.90;81.90;;;;;;5036391;28;20149;-69
2023/03/28 08:17:25;;;;;;;12.43;5.80;;;4.00;82.00;;;;;;5011392;28;21919;-69
2023/03/28 08:19:59;;;;;;;13.15;5.85;;;4.10;81.70;;;;;;5029676;28;20053;-67
2023/03/28 08:22:52;;;;;;;11.48;7.47;;;4.20;81.20;;;;;;5035496;28;20433;-66
2023/03/28 08:25:44;;;;;;;27.77;20.05;;;4.20;81.30;;;;;;5031077;28;20057;-69
2023/03/28 08:28:23;;;;;;;30.58;22.20;;;4.20;81.30;;;;;;5012255;28;20132;-69
2023/03/28 08:31:00;;;;;;;26.83;18.30;;;4.20;81.10;;;;;;5029941;28;20046;-67
2023/03/28 08:33:35;;;;;;;18.50;11.88;;;4.30;81.00;;;;;;5029159;28;20056;-67
2023/03/28 08:36:13;;;;;;;18.33;8.35;;;4.30;81.20;;;;;;5033266;28;20080;-67
2023/03/28 08:38:48;;;;;;;11.48;6.65;;;4.30;81.00;;;;;;4999490;28;20115;-69
2023/03/28 08:41:39;;;;;;;8.63;4.22;;;4.40;80.60;;;;;;5022755;28;20048;-68
2023/03/28 08:44:31;;;;;;;8.90;4.47;;;4.30;80.90;;;;;;5014662;28;20049;-67
2023/03/28 08:47:11;;;;;;;10.95;5.10;;;4.20;81.10;;;;;;5003297;28;20085;-68
2023/03/28 08:49:59;;;;;;;12.38;4.13;;;4.20;81.30;;;;;;4996681;28;20065;-70
2023/03/28 08:52:32;;;;;;;9.43;3.90;;;4.20;80.90;;;;;;4994579;28;20077;-69
2023/03/28 08:55:23;;;;;;;9.70;4.10;;;4.30;80.70;;;;;;5010638;28;20041;-69
2023/03/28 08:57:58;;;;;;;11.05;3.92;;;4.40;80.30;;;;;;5013411;28;20136;-70
2023/03/28 09:00:35;;;;;;;12.93;4.97;;;4.50;79.70;;;;;;5017097;28;20564;-69
2023/03/28 09:03:12;;;;;;;9.85;4.63;;;4.70;79.30;;;;;;4996237;28;20133;-69
2023/03/28 09:05:51;;;;;;;9.68;3.80;;;4.90;78.90;;;;;;5014692;28;20049;-70
2023/03/28 09:08:43;;;;;;;8.43;3.38;;;5.00;78.90;;;;;;4999284;28;20123;-69
2023/03/28 09:11:27;;;;;;;8.63;3.60;;;5.20;78.20;;;;;;5001765;28;20049;-69
2023/03/28 09:14:16;;;;;;;10.48;2.70;;;5.20;78.60;;;;;;4986648;28;20046;-69
2023/03/28 09:17:06;;;;;;;7.88;2.35;;;5.30;78.40;;;;;;4991082;28;20080;-68
2023/03/28 09:19:59;;;;;;;12.52;3.95;;;5.40;78.30;;;;;;4992585;28;20058;-69
2023/03/28 09:23:18;;;;;;;13.95;3.67;;;5.30;78.20;;;;;;4993371;28;20084;-68
2023/03/28 09:26:32;;;;;;;12.70;3.30;;;5.50;78.10;;;;;;4998110;28;20049;-69
2023/03/28 09:29:14;;;;;;;7.72;2.95;;;5.70;77.70;;;;;;4997456;28;20054;-69
2023/03/28 09:31:49;;;;;;;6.05;2.60;;;5.80;76.90;;;;;;5006875;28;20057;-69
2023/03/28 09:34:26;;;;;;;8.40;3.05;;;5.90;76.60;;;;;;5012419;28;20042;-69
2023/03/28 09:37:13;;;;;;;6.88;2.75;;;6.00;76.70;;;;;;4995158;28;20049;-68
2023/03/28 09:39:52;;;;;;;12.60;2.50;;;6.00;75.40;;;;;;5011328;28;20140;-69
2023/03/28 09:42:43;;;;;;;7.75;2.40;;;6.10;74.80;;;;;;4994688;28;20037;-69
2023/03/28 09:45:43;;;;;;;8.75;2.28;;;6.20;74.30;;;;;;4989900;28;20679;-68
2023/03/28 09:48:41;;;;;;;5.68;2.00;;;6.40;73.40;;;;;;5011634;28;20085;-68
2023/03/28 09:51:19;;;;;;;8.73;1.70;;;6.60;72.50;;;;;;4984374;28;20137;-68
2023/03/28 09:53:53;;;;;;;7.07;1.58;;;6.70;71.60;;;;;;4995356;28;20165;-70
2023/03/28 09:56:34;;;;;;;5.95;1.42;;;6.80;70.50;;;;;;4995049;28;20160;-70
2023/03/28 09:59:25;;;;;;;5.40;1.20;;;6.90;67.30;;;;;;4984555;28;20076;-70
2023/03/28 10:02:26;;;;;;;11.70;1.70;;;6.90;66.30;;;;;;4997378;28;20133;-69
2023/03/28 10:05:32;;;;;;;5.22;1.75;;;7.00;66.90;;;;;;5013650;28;20049;-71
2023/03/28 10:08:26;;;;;;;3.80;1.00;;;6.80;65.50;;;;;;5006687;28;20051;-69
2023/03/28 10:11:28;;;;;;;5.97;1.42;;;6.70;64.20;;;;;;5011884;28;20073;-69
2023/03/28 10:14:05;;;;;;;2.70;1.20;;;6.80;64.20;;;;;;4995660;28;20053;-71
2023/03/28 10:16:47;;;;;;;4.03;1.30;;;6.80;62.50;;;;;;5001317;28;20038;-71
2023/03/28 10:19:32;;;;;;;5.40;1.33;;;6.70;62.30;;;;;;4994294;28;20408;-69
2023/03/28 10:22:22;;;;;;;3.65;1.05;;;6.70;63.10;;;;;;5001602;28;20127;-70
2023/03/28 10:24:58;;;;;;;5.60;1.30;;;6.70;62.50;;;;;;4997289;28;20497;-70
2023/03/28 10:27:35;;;;;;;5.10;1.17;;;6.70;62.10;;;;;;5011474;28;20054;-70
2023/03/28 10:30:17;;;;;;;5.13;1.17;;;6.80;61.90;;;;;;5016540;28;20140;-69
2023/03/28 10:33:25;;;;;;;5.47;1.50;;;7.00;61.20;;;;;;5006838;28;20046;-69
2023/03/28 10:36:11;;;;;;;6.45;1.45;;;7.30;61.80;;;;;;5013725;28;20042;-69
2023/03/28 10:38:46;;;;;;;7.18;1.70;;;7.50;61.80;;;;;;4999798;28;20123;-71
2023/03/28 10:41:51;;;;;;;5.88;1.95;;;7.70;60.70;;;;;;5016012;28;20052;-70
2023/03/28 10:44:58;;;;;;;5.25;1.35;;;7.90;62.00;;;;;;5017972;28;20100;-69
2023/03/28 10:47:35;;;;;;;3.42;1.20;;;8.00;60.00;;;;;;5012070;28;20576;-71
2023/03/28 10:50:29;;;;;;;8.20;1.23;;;8.00;59.80;;;;;;5016236;28;20404;-70
2023/03/28 10:53:26;;;;;;;4.15;1.15;;;8.00;58.40;;;;;;5000207;28;20046;-68
2023/03/28 10:56:17;;;;;;;3.83;1.00;;;8.00;57.90;;;;;;5013285;28;20174;-69
2023/03/28 10:59:02;;;;;;;6.28;1.40;;;8.00;58.80;;;;;;5012345;28;20045;-69
2023/03/28 11:01:47;;;;;;;6.75;1.25;;;8.20;58.80;;;;;;5014979;28;20054;-69
2023/03/28 11:04:38;;;;;;;8.18;1.33;;;8.30;58.70;;;;;;4995736;28;20081;-69
2023/03/28 11:07:18;;;;;;;5.88;1.50;;;8.40;57.90;;;;;;5015409;28;20053;-72
2023/03/28 11:10:13;;;;;;;6.05;1.10;;;8.30;58.30;;;;;;4997774;28;20141;-71
2023/03/28 11:12:57;;;;;;;7.22;1.38;;;8.30;58.20;;;;;;5013800;28;20064;-70
2023/03/28 11:15:42;;;;;;;4.95;0.95;;;8.50;58.50;;;;;;4997275;28;20251;-70
2023/03/28 11:18:38;;;;;;;7.57;1.20;;;8.60;57.50;;;;;;4998078;28;20054;-70
2023/03/28 11:21:28;;;;;;;6.68;1.30;;;8.70;57.50;;;;;;4995631;28;20139;-71
2023/03/28 11:24:23;;;;;;;3.25;1.10;;;8.80;57.10;;;;;;5012355;28;20522;-71
2023/03/28 11:27:23;;;;;;;4.93;1.30;;;8.70;56.50;;;;;;5014203;28;20073;-71
2023/03/28 11:30:05;;;;;;;7.88;1.25;;;8.60;56.30;;;;;;4996354;28;20041;-69
2023/03/28 11:32:48;;;;;;;5.05;1.30;;;8.60;55.90;;;;;;4994457;28;20084;-70
2023/03/28 11:35:30;;;;;;;4.57;1.15;;;8.60;56.30;;;;;;4994419;28;20805;-70
2023/03/28 11:38:10;;;;;;;3.08;0.98;;;8.80;55.90;;;;;;4997339;28;20492;-70
2023/03/28 11:40:52;;;;;;;5.20;1.20;;;9.00;55.30;;;;;;4986022;28;20049;-70
2023/03/28 11:43:50;;;;;;;4.60;1.15;;;9.20;55.80;;;;;;4995202;28;20042;-70
2023/03/28 11:46:29;;;;;;;5.47;1.08;;;9.30;55.20;;;;;;4997155;28;20060;-70
2023/03/28 11:49:18;;;;;;;5.03;1.13;;;9.40;55.50;;;;;;4993240;28;20049;-69
2023/03/28 11:51:59;;;;;;;2.45;0.70;;;9.50;54.50;;;;;;4997955;28;20045;-70
2023/03/28 11:54:37;;;;;;;6.68;1.27;;;9.50;53.20;;;;;;4997480;28;20069;-70
2023/03/28 11:57:16;;;;;;;3.03;0.90;;;9.60;52.90;;;;;;4985329;28;20079;-69
2023/03/28 12:00:04;;;;;;;3.70;1.25;;;9.70;53.60;;;;;;5001516;28;20110;-70
2023/03/28 12:02:50;;;;;;;4.75;1.00;;;9.70;53.40;;;;;;5015674;28;20057;-70
2023/03/28 12:05:31;;;;;;;3.80;0.90;;;9.50;53.30;;;;;;4998130;28;20052;-69
2023/03/28 12:08:11;;;;;;;4.85;1.02;;;9.50;52.40;;;;;;5000822;28;20104;-69
2023/03/28 12:10:50;;;;;;;3.55;1.17;;;9.40;52.10;;;;;;4994403;28;20047;-68
2023/03/28 12:13:40;;;;;;;3.30;0.68;;;9.40;52.50;;;;;;4998408;28;20049;-69
2023/03/28 12:16:17;;;;;;;3.72;0.88;;;9.40;53.30;;;;;;4998602;28;20061;-69
2023/03/28 12:18:56;;;;;;;4.30;0.93;;;9.40;52.70;;;;;;5013929;28;20045;-70
2023/03/28 12:21:54;;;;;;;3.88;0.93;;;9.40;52.00;;;;;;5017511;28;20041;-70
2023/03/28 12:24:45;;;;;;;3.35;1.15;;;9.40;51.10;;;;;;4995050;28;20042;-70
2023/03/28 12:27:35;;;;;;;3.20;0.90;;;9.40;52.00;;;;;;4983956;28;20645;-69
2023/03/28 12:30:24;;;;;;;5.53;1.23;;;9.50;51.60;;;;;;4990378;28;20057;-71
2023/03/28 12:33:07;;;;;;;2.45;0.75;;;9.60;51.10;;;;;;4995965;28;20644;-70
2023/03/28 12:35:56;;;;;;;4.95;1.20;;;9.50;52.10;;;;;;4983552;28;20456;-70
2023/03/28 12:38:35;;;;;;;3.83;1.02;;;9.60;52.30;;;;;;4993903;28;20052;-71
2023/03/28 12:41:32;;;;;;;4.32;0.82;;;9.50;51.70;;;;;;5016266;28;20066;-69
2023/03/28 12:44:11;;;;;;;4.78;1.20;;;9.40;51.30;;;;;;5016445;28;20057;-70
2023/03/28 12:46:52;;;;;;;3.38;1.00;;;9.40;51.40;;;;;;4986064;28;20193;-69
2023/03/28 12:49:45;;;;;;;3.83;1.15;;;9.40;51.30;;;;;;5015180;28;20041;-70
2023/03/28 12:52:24;;;;;;;3.38;0.70;;;9.40;51.60;;;;;;5021269;28;20623;-69
2023/03/28 12:54:59;;;;;;;5.53;0.90;;;9.40;51.40;;;;;;4998238;28;20041;-70
2023/03/28 12:57:45;;;;;;;3.97;0.85;;;9.40;51.80;;;;;;5016078;28;20053;-68
2023/03/28 13:00:46;;;;;;;5.60;1.08;;;9.40;51.80;;;;;;5033377;28;20095;-70
2023/03/28 13:03:57;;;;;;;4.53;1.08;;;9.30;51.90;;;;;;5023797;28;20052;-68
2023/03/28 13:06:58;;;;;;;3.50;1.13;;;9.30;51.90;;;;;;5017059;28;20056;-69
2023/03/28 13:09:57;;;;;;;5.05;1.20;;;9.30;51.80;;;;;;5033511;28;20462;-69
2023/03/28 13:12:40;;;;;;;2.75;0.93;;;9.30;52.30;;;;;;5026696;28;20376;-70
2023/03/28 13:15:32;;;;;;;4.75;1.05;;;9.30;52.50;;;;;;5032108;28;20065;-71
2023/03/28 13:18:26;;;;;;;5.00;1.58;;;9.30;52.50;;;;;;5036337;28;20073;-69
2023/03/28 13:21:03;;;;;;;4.72;1.08;;;9.30;52.20;;;;;;5030858;28;20142;-68
2023/03/28 13:23:45;;;;;;;5.15;0.93;;;9.30;51.90;;;;;;5029826;28;20049;-69
2023/03/28 13:26:21;;;;;;;6.57;1.20;;;9.20;51.90;;;;;;5035306;28;20067;-70
2023/03/28 13:28:59;;;;;;;3.05;0.90;;;9.20;52.50;;;;;;5032738;28;20045;-70
2023/03/28 13:31:34;;;;;;;3.60;1.00;;;9.20;52.40;;;;;;5032246;28;20037;-68
2023/03/28 13:34:21;;;;;;;3.92;1.58;;;9.20;51.90;;;;;;5016451;28;20049;-70
2023/03/28 13:36:55;;;;;;;2.65;0.90;;;9.20;52.40;;;;;;5021745;28;20057;-71
2023/03/28 13:39:28;;;;;;;4.25;1.20;;;9.30;52.50;;;;;;5032817;28;20495;-70
2023/03/28 13:42:01;;;;;;;4.47;1.30;;;9.30;52.30;;;;;;5030663;28;20059;-70
2023/03/28 13:44:41;;;;;;;3.70;0.88;;;9.30;52.50;;;;;;5032890;28;20065;-70
2023/03/28 13:47:30;;;;;;;3.67;0.82;;;9.30;52.00;;;;;;5028877;28;20057;-72
2023/03/28 13:50:20;;;;;;;3.63;0.85;;;9.30;51.70;;;;;;5016184;28;20052;-71
2023/03/28 13:52:53;;;;;;;4.10;1.02;;;9.30;52.40;;;;;;5015001;28;20390;-71
2023/03/28 13:55:27;;;;;;;4.68;0.80;;;9.30;52.20;;;;;;5016195;28;20054;-70
2023/03/28 13:58:01;;;;;;;5.82;1.23;;;9.40;52.30;;;;;;5015567;28;20098;-68
2023/03/28 14:00:34;;;;;;;5.03;0.90;;;9.40;51.80;;;;;;5016059;28;20444;-70
2023/03/28 14:03:15;;;;;;;4.07;1.00;;;9.40;51.90;;;;;;5013595;28;20177;-72
2023/03/28 14:05:48;;;;;;;2.63;0.95;;;9.50;52.00;;;;;;5015920;28;20064;-70
2023/03/28 14:08:24;;;;;;;3.33;0.90;;;9.50;52.10;;;;;;5016890;28;20050;-71
2023/03/28 14:10:59;;;;;;;4.72;1.20;;;9.50;52.30;;;;;;5015298;28;20076;-70
2023/03/28 14:13:32;;;;;;;2.70;0.80;;;9.50;52.00;;;;;;5015739;28;20052;-70
2023/03/28 14:16:08;;;;;;;4.03;0.88;;;9.40;51.90;;;;;;5015126;28;20080;-69